Time;durP1;ratioP1;P1;durP2;ratioP2;P2;SDS_P1;SDS_P2;PMS_P1;PMS_P2;Temp;Humidity;BMP_temperature;BMP_pressure;BME280_temperature;BME280_humidity;BME280_pressure;Samples;Min_cycle;Max_cycle;Signal;HPM_P1;HPM_P2
2022/04/14 00:00:24;;;;;;;27.63;16.83;;;14.80;99.90;;;;;;5071368;28;20028;-73
2022/04/14 00:02:54;;;;;;;24.00;16.45;;;14.80;99.90;;;;;;5071396;28;20474;-73
2022/04/14 00:05:20;;;;;;;28.92;18.42;;;14.80;99.90;;;;;;5071262;28;20660;-73
2022/04/14 00:07:46;;;;;;;31.65;18.88;;;14.80;99.90;;;;;;5071235;28;20021;-72
2022/04/14 00:10:13;;;;;;;31.70;18.80;;;14.80;99.90;;;;;;5071332;28;20028;-72
2022/04/14 00:12:40;;;;;;;28.48;19.15;;;14.80;99.90;;;;;;5053420;28;20039;-73
2022/04/14 00:15:07;;;;;;;34.22;21.70;;;14.80;99.90;;;;;;5071031;28;20061;-73
2022/04/14 00:17:33;;;;;;;31.63;19.77;;;14.70;99.90;;;;;;5070998;28;20067;-73
2022/04/14 00:20:06;;;;;;;37.20;22.92;;;14.70;99.90;;;;;;5053242;28;20113;-73
2022/04/14 00:22:33;;;;;;;32.60;20.80;;;14.70;99.90;;;;;;5053245;28;20029;-73
2022/04/14 00:24:59;;;;;;;38.83;23.40;;;14.70;99.90;;;;;;5070839;28;20040;-73
2022/04/14 00:27:25;;;;;;;36.42;23.10;;;14.60;99.90;;;;;;5070604;28;20052;-73
2022/04/14 00:29:51;;;;;;;39.85;23.92;;;14.60;99.90;;;;;;5070998;28;20031;-73
2022/04/14 00:32:17;;;;;;;36.20;22.55;;;14.60;99.90;;;;;;5070795;28;20025;-73
2022/04/14 00:34:43;;;;;;;38.58;23.55;;;14.70;99.90;;;;;;5071094;28;20056;-73
2022/04/14 00:37:10;;;;;;;37.72;22.10;;;14.70;99.90;;;;;;5070763;28;20033;-73
2022/04/14 00:39:37;;;;;;;37.83;23.63;;;14.70;99.90;;;;;;5070780;28;20020;-73
2022/04/14 00:42:10;;;;;;;36.45;23.65;;;14.60;99.90;;;;;;5070676;28;20078;-73
2022/04/14 00:44:36;;;;;;;40.20;23.55;;;14.60;99.90;;;;;;5070890;28;20098;-73
2022/04/14 00:47:03;;;;;;;34.63;22.17;;;14.60;99.90;;;;;;5070845;28;20025;-73
2022/04/14 00:49:29;;;;;;;36.60;22.20;;;14.60;99.90;;;;;;5070770;28;20107;-73
2022/04/14 00:51:55;;;;;;;35.35;21.80;;;14.60;99.90;;;;;;5072846;28;20035;-73
2022/04/14 00:54:21;;;;;;;32.83;20.70;;;14.60;99.90;;;;;;5075084;28;20028;-73
2022/04/14 00:56:47;;;;;;;36.13;21.70;;;14.60;99.90;;;;;;5074570;28;20024;-73
2022/04/14 00:59:13;;;;;;;35.63;21.42;;;14.60;99.90;;;;;;5074861;28;20465;-73
2022/04/14 01:01:39;;;;;;;34.67;21.35;;;14.60;99.90;;;;;;5074686;28;20032;-73
2022/04/14 01:04:05;;;;;;;35.22;21.77;;;14.60;99.90;;;;;;5056855;28;20347;-73
2022/04/14 01:06:32;;;;;;;34.08;20.73;;;14.50;99.90;;;;;;5074493;28;20028;-73
2022/04/14 01:09:16;;;;;;;34.40;21.45;;;14.50;99.90;;;;;;5074530;28;20078;-73
2022/04/14 01:11:46;;;;;;;33.55;21.05;;;14.50;99.90;;;;;;5074775;28;20025;-73
2022/04/14 01:14:21;;;;;;;37.08;22.10;;;14.50;99.90;;;;;;5056693;28;20025;-73
2022/04/14 01:16:47;;;;;;;33.83;20.83;;;14.50;99.90;;;;;;5074323;28;20052;-73
2022/04/14 01:19:13;;;;;;;35.50;21.48;;;14.50;99.90;;;;;;5074256;28;20568;-73
2022/04/14 01:21:45;;;;;;;33.97;21.90;;;14.40;99.90;;;;;;5074408;28;20119;-73
2022/04/14 01:24:11;;;;;;;33.80;21.45;;;14.40;99.90;;;;;;5074562;28;20047;-73
2022/04/14 01:26:38;;;;;;;37.67;22.35;;;14.40;99.90;;;;;;5074207;28;20508;-73
2022/04/14 01:29:04;;;;;;;33.92;21.75;;;14.50;99.90;;;;;;5056546;28;20028;-73
2022/04/14 01:31:30;;;;;;;35.25;21.60;;;14.40;99.90;;;;;;5074126;28;20074;-73
2022/04/14 01:33:56;;;;;;;34.53;21.58;;;14.40;99.90;;;;;;5056169;28;20020;-73
2022/04/14 01:36:22;;;;;;;33.55;21.83;;;14.40;99.90;;;;;;5073951;28;20534;-73
2022/04/14 01:38:48;;;;;;;35.05;22.23;;;14.40;99.90;;;;;;5074369;28;20021;-73
2022/04/14 01:41:14;;;;;;;36.55;22.27;;;14.40;99.90;;;;;;5073902;28;20028;-73
2022/04/14 01:43:40;;;;;;;32.78;20.67;;;14.30;99.90;;;;;;5073869;28;20024;-73
2022/04/14 01:46:08;;;;;;;32.00;19.70;;;14.30;99.90;;;;;;5073840;28;20484;-73
2022/04/14 01:48:35;;;;;;;38.40;22.30;;;14.30;99.90;;;;;;5056021;28;20033;-72
2022/04/14 01:51:01;;;;;;;39.45;22.83;;;14.30;99.90;;;;;;5073931;28;20036;-72
2022/04/14 01:53:27;;;;;;;33.53;21.85;;;14.30;99.90;;;;;;5073619;28;20032;-72
2022/04/14 01:55:52;;;;;;;36.75;22.23;;;14.30;99.90;;;;;;5073624;28;20031;-72
2022/04/14 01:58:18;;;;;;;35.20;22.17;;;14.30;99.90;;;;;;5073579;28;20035;-72
2022/04/14 02:00:44;;;;;;;38.53;24.33;;;14.30;99.90;;;;;;5073598;28;20047;-72
2022/04/14 02:03:10;;;;;;;39.63;22.67;;;14.30;99.90;;;;;;5073071;28;20044;-72
2022/04/14 02:05:36;;;;;;;34.35;21.23;;;14.40;99.90;;;;;;5073373;28;20497;-72
2022/04/14 02:08:02;;;;;;;38.10;22.83;;;14.30;99.90;;;;;;5073331;28;20107;-72
2022/04/14 02:10:28;;;;;;;35.17;22.38;;;14.40;99.90;;;;;;5073859;28;20037;-72
2022/04/14 02:12:54;;;;;;;37.85;22.60;;;14.30;99.90;;;;;;5055407;28;20382;-72
2022/04/14 02:15:20;;;;;;;38.75;23.27;;;14.30;99.90;;;;;;5055237;28;20025;-72
2022/04/14 02:17:46;;;;;;;34.63;22.20;;;14.30;99.90;;;;;;5072863;28;20442;-72
2022/04/14 02:20:12;;;;;;;37.25;23.05;;;14.30;99.90;;;;;;5055225;28;20039;-72
2022/04/14 02:22:42;;;;;;;36.47;23.00;;;14.30;99.90;;;;;;5055124;28;20047;-72
2022/04/14 02:25:09;;;;;;;36.80;22.80;;;14.40;99.90;;;;;;5073131;28;20083;-72
2022/04/14 02:27:35;;;;;;;41.22;23.98;;;14.40;99.90;;;;;;5072736;28;20040;-72
2022/04/14 02:30:01;;;;;;;37.35;23.38;;;14.40;99.90;;;;;;5073031;28;20425;-72
2022/04/14 02:32:27;;;;;;;35.15;22.52;;;14.30;99.90;;;;;;5073052;28;20028;-72
2022/04/14 02:34:53;;;;;;;38.15;24.30;;;14.30;99.90;;;;;;5073222;28;20078;-72
2022/04/14 02:37:19;;;;;;;36.50;22.05;;;14.30;99.90;;;;;;5072803;28;20035;-72
2022/04/14 02:39:45;;;;;;;38.03;23.83;;;14.30;99.90;;;;;;5072777;28;20029;-72
2022/04/14 02:42:11;;;;;;;41.78;24.80;;;14.30;99.90;;;;;;5072808;28;20048;-72
2022/04/14 02:44:37;;;;;;;36.33;23.25;;;14.30;99.90;;;;;;5072714;28;20075;-72
2022/04/14 02:47:03;;;;;;;36.53;22.23;;;14.30;99.90;;;;;;5072427;28;20025;-72
2022/04/14 02:49:29;;;;;;;39.63;24.50;;;14.30;99.90;;;;;;5072583;28;20060;-72
2022/04/14 02:51:54;;;;;;;39.60;24.50;;;14.30;99.90;;;;;;5072982;28;20079;-72
2022/04/14 02:54:20;;;;;;;42.85;25.45;;;14.20;99.90;;;;;;5072584;28;20033;-72
2022/04/14 02:56:46;;;;;;;43.53;26.75;;;14.20;99.90;;;;;;5054483;28;20188;-72
2022/04/14 02:59:12;;;;;;;41.75;24.98;;;14.20;99.90;;;;;;5072229;28;20039;-72
2022/04/14 03:01:38;;;;;;;45.22;26.50;;;14.20;99.90;;;;;;5072323;28;20021;-72
2022/04/14 03:04:04;;;;;;;44.50;25.98;;;14.20;99.90;;;;;;5072418;28;20029;-72
2022/04/14 03:06:30;;;;;;;38.42;24.90;;;14.20;99.90;;;;;;5072175;28;20497;-72
2022/04/14 03:08:55;;;;;;;42.95;26.65;;;14.20;99.90;;;;;;5072491;28;20028;-72
2022/04/14 03:11:21;;;;;;;45.65;26.38;;;14.20;99.90;;;;;;5072233;28;20071;-72
2022/04/14 03:13:47;;;;;;;42.95;26.23;;;14.20;99.90;;;;;;5053496;28;20044;-72
2022/04/14 03:16:13;;;;;;;41.70;25.90;;;14.30;99.90;;;;;;5072094;28;20453;-72
2022/04/14 03:18:39;;;;;;;39.85;24.58;;;14.20;99.90;;;;;;5054141;28;20115;-72
2022/04/14 03:21:05;;;;;;;38.75;25.70;;;14.20;99.90;;;;;;5072083;28;20037;-72
2022/04/14 03:23:31;;;;;;;39.90;24.80;;;14.20;99.90;;;;;;5071806;28;20025;-72
2022/04/14 03:25:57;;;;;;;43.13;27.17;;;14.20;99.90;;;;;;5053931;28;20032;-72
2022/04/14 03:28:23;;;;;;;44.53;26.40;;;14.10;99.90;;;;;;5071554;28;20025;-72
2022/04/14 03:30:49;;;;;;;46.97;27.33;;;14.10;99.90;;;;;;5072103;28;20089;-72
2022/04/14 03:33:15;;;;;;;45.80;27.52;;;14.10;99.90;;;;;;5054241;28;20032;-72
2022/04/14 03:35:40;;;;;;;49.60;27.90;;;14.10;99.90;;;;;;5071667;28;20488;-72
2022/04/14 03:38:06;;;;;;;46.65;27.73;;;14.10;99.90;;;;;;5053772;28;20039;-72
2022/04/14 03:40:32;;;;;;;48.53;28.33;;;14.10;99.90;;;;;;5071543;28;20028;-73
2022/04/14 03:42:58;;;;;;;45.83;27.33;;;14.10;99.90;;;;;;5071480;28;20027;-73
2022/04/14 03:45:24;;;;;;;43.42;26.92;;;14.10;99.90;;;;;;5071757;28;20029;-73
2022/04/14 03:47:50;;;;;;;44.88;27.33;;;14.00;99.90;;;;;;5071330;28;20153;-73
2022/04/14 03:50:16;;;;;;;46.42;27.55;;;14.10;99.90;;;;;;5071529;28;20029;-73
2022/04/14 03:52:42;;;;;;;46.78;28.27;;;14.10;99.90;;;;;;5071346;28;20074;-73
2022/04/14 03:55:08;;;;;;;47.10;27.77;;;14.00;99.90;;;;;;5071338;28;20028;-73
2022/04/14 03:57:34;;;;;;;46.30;28.20;;;14.10;99.90;;;;;;5053050;28;20058;-73
2022/04/14 04:00:00;;;;;;;44.03;26.75;;;14.00;99.90;;;;;;5071203;28;20025;-72
2022/04/14 04:02:26;;;;;;;48.65;28.75;;;14.00;99.90;;;;;;5053478;28;20029;-72
2022/04/14 04:04:52;;;;;;;45.40;27.25;;;14.00;99.90;;;;;;5071645;28;20103;-72
2022/04/14 04:07:18;;;;;;;45.70;27.70;;;14.00;99.90;;;;;;5071021;28;20029;-73
2022/04/14 04:09:44;;;;;;;44.65;27.60;;;14.00;99.90;;;;;;5071064;28;20039;-73
2022/04/14 04:12:10;;;;;;;46.13;27.73;;;13.90;99.90;;;;;;5070913;28;20099;-73
2022/04/14 04:14:36;;;;;;;44.10;26.30;;;13.90;99.90;;;;;;5071174;28;20319;-73
2022/04/14 04:17:04;;;;;;;52.95;29.20;;;14.00;99.90;;;;;;5070887;28;20039;-73
2022/04/14 04:19:31;;;;;;;47.30;28.90;;;13.90;99.90;;;;;;5052952;28;20039;-73
2022/04/14 04:21:57;;;;;;;51.58;29.98;;;13.90;99.90;;;;;;5070901;28;20036;-73
2022/04/14 04:24:23;;;;;;;46.58;28.67;;;13.90;99.90;;;;;;5071020;28;20024;-73
2022/04/14 04:26:49;;;;;;;45.90;28.17;;;13.90;99.90;;;;;;5070422;28;20409;-73
2022/04/14 04:29:15;;;;;;;53.10;30.38;;;14.00;99.90;;;;;;5070841;28;20028;-73
2022/04/14 04:31:41;;;;;;;58.08;33.22;;;14.00;99.90;;;;;;5070847;28;20392;-73
2022/04/14 04:34:06;;;;;;;52.95;32.05;;;14.00;99.90;;;;;;5070824;28;20047;-73
2022/04/14 04:36:32;;;;;;;56.20;33.22;;;14.00;99.90;;;;;;5070659;28;20393;-73
2022/04/14 04:39:01;;;;;;;54.20;32.92;;;14.10;99.90;;;;;;5052823;28;20031;-73
2022/04/14 04:41:27;;;;;;;59.13;34.35;;;14.10;99.90;;;;;;5070476;28;20032;-73
2022/04/14 04:43:53;;;;;;;59.83;34.45;;;14.10;99.90;;;;;;5070745;28;20039;-73
2022/04/14 04:46:19;;;;;;;62.13;36.58;;;14.10;99.90;;;;;;5070553;28;20033;-73
2022/04/14 04:48:45;;;;;;;51.53;32.08;;;14.10;99.90;;;;;;5070523;28;20029;-73
2022/04/14 04:51:11;;;;;;;56.85;33.75;;;14.10;99.90;;;;;;5070725;28;20051;-73
2022/04/14 04:53:37;;;;;;;62.08;35.58;;;14.10;99.90;;;;;;5070587;28;20036;-73
2022/04/14 04:56:03;;;;;;;59.25;34.42;;;14.10;99.90;;;;;;5070425;28;20033;-73
2022/04/14 04:58:29;;;;;;;60.95;35.97;;;14.10;99.90;;;;;;5052621;28;20029;-73
2022/04/14 05:00:55;;;;;;;55.88;32.40;;;14.10;99.90;;;;;;5070484;28;20400;-73
2022/04/14 05:03:21;;;;;;;57.17;34.20;;;14.10;99.90;;;;;;5070547;28;20089;-73
2022/04/14 05:05:49;;;;;;;58.03;34.47;;;14.10;99.90;;;;;;5070405;28;20029;-73
2022/04/14 05:08:15;;;;;;;59.78;34.92;;;14.10;99.90;;;;;;5070491;28;20033;-73
2022/04/14 05:10:41;;;;;;;60.03;34.83;;;14.10;99.90;;;;;;5070407;28;20025;-73
2022/04/14 05:13:07;;;;;;;59.28;35.30;;;14.10;99.90;;;;;;5070452;28;20473;-73
2022/04/14 05:15:35;;;;;;;58.90;33.97;;;14.10;99.90;;;;;;5070421;28;20028;-73
2022/04/14 05:18:02;;;;;;;62.63;35.50;;;14.10;99.90;;;;;;5070450;28;20183;-73
2022/04/14 05:20:27;;;;;;;60.53;36.33;;;14.10;99.90;;;;;;5070388;28;20106;-73
2022/04/14 05:22:53;;;;;;;61.80;35.38;;;14.10;99.90;;;;;;5070697;28;20056;-73
2022/04/14 05:25:19;;;;;;;56.80;33.92;;;14.10;99.90;;;;;;5052299;28;20032;-73
2022/04/14 05:27:45;;;;;;;56.08;33.28;;;14.10;99.90;;;;;;5052236;28;20037;-73
2022/04/14 05:30:11;;;;;;;56.72;32.95;;;14.10;99.90;;;;;;5070258;28;20122;-73
2022/04/14 05:32:38;;;;;;;54.03;33.60;;;14.00;99.90;;;;;;5070096;28;20039;-73
2022/04/14 05:35:08;;;;;;;56.97;34.10;;;14.00;99.90;;;;;;5070262;28;20036;-73
2022/04/14 05:37:35;;;;;;;54.55;31.35;;;14.00;99.90;;;;;;5071326;28;20036;-73
2022/04/14 05:40:03;;;;;;;56.42;33.97;;;14.00;99.90;;;;;;5056133;28;20174;-73
2022/04/14 05:42:29;;;;;;;54.60;33.20;;;14.00;99.90;;;;;;5073877;28;20366;-73
2022/04/14 05:44:55;;;;;;;57.03;33.13;;;14.00;99.90;;;;;;5073834;28;20035;-73
2022/04/14 05:47:23;;;;;;;54.85;33.42;;;14.00;99.90;;;;;;5055976;28;20020;-73
2022/04/14 05:49:50;;;;;;;55.75;32.97;;;14.00;99.90;;;;;;5073654;28;20032;-73
2022/04/14 05:52:16;;;;;;;56.60;33.78;;;14.00;99.90;;;;;;5073451;28;20037;-73
2022/04/14 05:54:44;;;;;;;56.00;33.13;;;14.00;99.90;;;;;;5073563;28;20082;-73
2022/04/14 05:57:10;;;;;;;54.28;31.80;;;14.00;99.90;;;;;;5073493;28;20067;-73
2022/04/14 05:59:36;;;;;;;58.72;34.10;;;14.00;99.90;;;;;;5073603;28;20029;-73
2022/04/14 06:02:02;;;;;;;56.50;32.63;;;14.00;99.90;;;;;;5055779;28;20031;-73
2022/04/14 06:04:28;;;;;;;58.38;34.40;;;14.10;99.90;;;;;;5073525;28;20062;-73
2022/04/14 06:06:54;;;;;;;59.42;33.53;;;14.10;99.90;;;;;;5073216;28;20510;-73
2022/04/14 06:09:20;;;;;;;55.30;33.20;;;14.10;99.90;;;;;;5073534;28;20021;-73
2022/04/14 06:11:46;;;;;;;59.72;33.80;;;14.10;99.90;;;;;;5073345;28;20029;-73
2022/04/14 06:14:12;;;;;;;53.53;32.63;;;14.10;99.90;;;;;;5073658;28;20060;-73
2022/04/14 06:16:38;;;;;;;58.65;34.45;;;14.10;99.90;;;;;;5055197;28;20033;-73
2022/04/14 06:19:04;;;;;;;53.28;32.58;;;14.10;99.90;;;;;;5073123;28;20039;-73
2022/04/14 06:21:30;;;;;;;56.08;33.03;;;14.10;99.90;;;;;;5073113;28;20028;-73
2022/04/14 06:23:56;;;;;;;61.22;34.10;;;14.20;99.90;;;;;;5073105;28;20074;-73
2022/04/14 06:26:22;;;;;;;56.92;32.78;;;14.20;99.90;;;;;;5072929;28;20401;-73
2022/04/14 06:28:48;;;;;;;51.97;32.63;;;14.20;99.90;;;;;;5073169;28;20033;-73
2022/04/14 06:31:15;;;;;;;53.13;31.17;;;14.20;99.90;;;;;;5073114;28;20040;-73
2022/04/14 06:33:41;;;;;;;54.13;32.45;;;14.30;99.90;;;;;;5072893;28;20036;-73
2022/04/14 06:36:07;;;;;;;54.60;32.60;;;14.20;99.90;;;;;;5072767;28;20505;-73
2022/04/14 06:38:33;;;;;;;55.70;30.70;;;14.20;99.90;;;;;;5072884;28;20024;-73
2022/04/14 06:40:59;;;;;;;50.53;30.48;;;14.30;99.90;;;;;;5072851;28;20035;-73
2022/04/14 06:43:25;;;;;;;52.63;32.45;;;14.30;99.90;;;;;;5054965;28;20024;-73
2022/04/14 06:45:51;;;;;;;58.88;34.40;;;14.30;99.90;;;;;;5072801;28;20017;-73
2022/04/14 06:48:17;;;;;;;57.47;34.33;;;14.30;99.90;;;;;;5054144;28;20047;-73
2022/04/14 06:50:43;;;;;;;55.75;33.92;;;14.30;99.90;;;;;;5072185;28;20074;-73
2022/04/14 06:53:09;;;;;;;56.25;34.95;;;14.30;99.90;;;;;;5072540;28;20044;-73
2022/04/14 06:55:37;;;;;;;55.72;33.58;;;14.30;99.90;;;;;;5072610;28;20033;-73
2022/04/14 06:58:03;;;;;;;59.47;35.33;;;14.30;99.90;;;;;;5072123;28;20056;-73
2022/04/14 07:00:30;;;;;;;61.28;36.45;;;14.30;99.90;;;;;;5072459;28;20527;-73
2022/04/14 07:02:57;;;;;;;62.67;36.53;;;14.30;99.90;;;;;;5072183;28;20044;-73
2022/04/14 07:05:23;;;;;;;59.83;36.15;;;14.30;99.90;;;;;;5054389;28;20032;-73
2022/04/14 07:07:50;;;;;;;59.58;36.58;;;14.30;99.90;;;;;;5072162;28;20033;-73
2022/04/14 07:10:16;;;;;;;52.28;32.30;;;14.30;99.90;;;;;;5072369;28;20473;-73
2022/04/14 07:12:44;;;;;;;58.08;35.08;;;14.40;99.90;;;;;;5054355;28;20075;-73
2022/04/14 07:15:10;;;;;;;55.05;34.08;;;14.30;99.90;;;;;;5072252;28;20040;-73
2022/04/14 07:17:37;;;;;;;61.47;35.17;;;14.40;99.90;;;;;;5071792;28;20036;-73
2022/04/14 07:20:04;;;;;;;58.65;35.58;;;14.40;99.90;;;;;;5072376;28;20025;-73
2022/04/14 07:22:40;;;;;;;60.40;36.65;;;14.50;99.90;;;;;;5071931;28;20485;-73
2022/04/14 07:25:06;;;;;;;63.20;37.75;;;14.50;99.90;;;;;;5054094;28;20029;-73
2022/04/14 07:27:32;;;;;;;60.92;35.63;;;14.60;99.90;;;;;;5071653;28;20036;-73
2022/04/14 07:29:58;;;;;;;55.53;34.13;;;14.60;99.90;;;;;;5071848;28;20430;-73
2022/04/14 07:32:24;;;;;;;52.50;33.75;;;14.60;99.90;;;;;;5037179;28;20032;-73
2022/04/14 07:34:51;;;;;;;52.95;32.42;;;14.60;99.90;;;;;;5071735;28;20037;-73
2022/04/14 07:37:17;;;;;;;53.40;33.08;;;14.60;99.90;;;;;;5071447;28;20485;-73
2022/04/14 07:39:43;;;;;;;50.90;29.48;;;14.60;99.90;;;;;;5071595;28;20039;-73
2022/04/14 07:42:08;;;;;;;46.20;28.10;;;14.70;99.90;;;;;;5071584;28;20028;-73
2022/04/14 07:44:34;;;;;;;48.58;28.75;;;14.70;99.90;;;;;;5071677;28;20393;-73
2022/04/14 07:47:00;;;;;;;48.92;27.92;;;14.70;99.90;;;;;;5071230;28;20056;-73
2022/04/14 07:49:27;;;;;;;49.17;27.95;;;14.70;99.90;;;;;;5071622;28;20035;-73
2022/04/14 07:51:55;;;;;;;49.00;27.95;;;14.80;99.90;;;;;;5071321;28;20051;-73
2022/04/14 07:54:22;;;;;;;50.40;30.13;;;14.80;99.90;;;;;;5071579;28;20035;-73
2022/04/14 07:56:48;;;;;;;48.13;28.50;;;14.80;99.90;;;;;;5071127;28;20110;-73
2022/04/14 07:59:14;;;;;;;50.33;29.27;;;14.80;99.90;;;;;;5071045;28;20063;-73
2022/04/14 08:01:40;;;;;;;52.58;31.50;;;14.80;99.90;;;;;;5052960;28;20032;-73
2022/04/14 08:04:06;;;;;;;55.13;32.67;;;14.80;99.90;;;;;;5071232;28;20024;-73
2022/04/14 08:06:31;;;;;;;51.53;30.77;;;14.90;99.90;;;;;;5070923;28;20024;-73
2022/04/14 08:08:57;;;;;;;48.85;30.00;;;14.90;99.90;;;;;;5071046;28;20100;-73
2022/04/14 08:11:23;;;;;;;52.20;30.98;;;14.90;99.90;;;;;;5071147;28;20060;-73
2022/04/14 08:13:49;;;;;;;52.10;30.75;;;14.90;99.90;;;;;;5053191;28;20036;-73
2022/04/14 08:16:16;;;;;;;52.60;30.83;;;15.00;99.90;;;;;;5071013;28;20044;-72
2022/04/14 08:18:42;;;;;;;52.45;30.55;;;15.00;99.90;;;;;;5070823;28;20024;-73
2022/04/14 08:21:08;;;;;;;54.75;31.02;;;15.00;99.90;;;;;;5071299;28;20032;-73
2022/04/14 08:23:38;;;;;;;56.40;32.53;;;15.10;99.90;;;;;;5070994;28;20033;-73
2022/04/14 08:26:08;;;;;;;53.53;31.45;;;15.10;99.90;;;;;;5067628;22;20396;-72
2022/04/14 08:28:40;;;;;;;;;;;15.10;99.90;;;;;;5071686;28;20021;-73
2022/04/14 08:31:10;;;;;;;60.83;34.55;;;15.20;99.90;;;;;;5071218;28;20334;-74
2022/04/14 08:33:37;;;;;;;64.60;37.65;;;15.30;99.90;;;;;;5036617;28;20396;-74
2022/04/14 08:36:12;;;;;;;64.05;37.60;;;15.30;99.90;;;;;;5052916;28;20452;-73
2022/04/14 08:38:45;;;;;;;58.20;36.72;;;15.40;99.90;;;;;;5071002;28;20032;-74
2022/04/14 08:41:14;;;;;;;61.75;37.95;;;15.40;99.90;;;;;;5053365;28;20068;-74
2022/04/14 08:44:00;;;;;;;64.35;38.30;;;15.40;99.90;;;;;;5053047;28;20024;-73
2022/04/14 08:46:28;;;;;;;67.22;40.03;;;15.50;99.90;;;;;;5052694;28;20033;-73
2022/04/14 08:48:57;;;;;;;65.38;40.30;;;15.50;99.90;;;;;;5053233;28;20141;-73
2022/04/14 08:51:27;;;;;;;68.30;40.10;;;15.60;99.90;;;;;;5052963;28;20039;-73
2022/04/14 08:53:54;;;;;;;70.47;43.42;;;15.70;99.90;;;;;;5070911;28;20099;-75
2022/04/14 08:56:21;;;;;;;75.13;42.75;;;15.70;99.90;;;;;;5070762;28;20028;-73
2022/04/14 08:58:48;;;;;;;71.05;43.35;;;15.70;99.90;;;;;;5052988;28;20507;-73
2022/04/14 09:01:15;;;;;;;74.45;44.15;;;15.80;99.90;;;;;;5070839;28;20062;-74
2022/04/14 09:03:42;;;;;;;74.97;43.88;;;15.80;99.90;;;;;;5070787;28;20025;-74
2022/04/14 09:06:08;;;;;;;73.78;45.72;;;15.80;99.90;;;;;;5070674;28;20504;-75
2022/04/14 09:08:34;;;;;;;72.18;43.75;;;15.90;99.90;;;;;;5052821;28;20029;-74
2022/04/14 09:11:01;;;;;;;73.63;45.28;;;15.80;99.90;;;;;;5053169;28;20524;-74
2022/04/14 09:13:27;;;;;;;72.38;44.70;;;15.80;99.90;;;;;;5073411;28;20531;-74
2022/04/14 09:15:54;;;;;;;71.13;42.78;;;15.90;99.90;;;;;;5074519;28;20111;-74
2022/04/14 09:18:20;;;;;;;73.55;44.42;;;15.90;99.90;;;;;;5074430;28;20031;-75
2022/04/14 09:20:48;;;;;;;70.25;42.30;;;16.00;99.90;;;;;;5074517;28;20118;-74
2022/04/14 09:23:26;;;;;;;67.30;40.50;;;16.00;99.90;;;;;;5056517;28;20052;-75
2022/04/14 09:26:04;;;;;;;64.75;38.58;;;16.10;99.90;;;;;;5074410;28;20631;-74
2022/04/14 09:28:31;;;;;;;43.55;26.58;;;16.20;99.90;;;;;;5074362;28;20028;-73
2022/04/14 09:31:03;;;;;;;51.70;30.63;;;16.30;99.90;;;;;;5074149;28;20033;-73
2022/04/14 09:33:34;;;;;;;45.22;28.52;;;16.40;99.90;;;;;;5056172;28;20378;-73
2022/04/14 09:36:09;;;;;;;37.08;22.52;;;16.40;99.90;;;;;;5056259;28;20068;-74
2022/04/14 09:39:08;;;;;;;45.80;27.60;;;16.40;99.90;;;;;;5056252;28;20032;-74
2022/04/14 09:41:39;;;;;;;41.47;26.67;;;16.50;99.90;;;;;;5017475;28;20041;-74
2022/04/14 09:44:10;;;;;;;41.03;26.35;;;16.50;99.90;;;;;;5074250;28;20108;-74
2022/04/14 09:46:37;;;;;;;39.80;25.13;;;16.50;99.90;;;;;;5073651;28;20131;-73
2022/04/14 09:49:07;;;;;;;37.50;23.00;;;16.60;99.90;;;;;;5073864;28;20032;-74
2022/04/14 09:51:41;;;;;;;37.97;24.45;;;16.60;99.90;;;;;;5055891;28;20025;-76
2022/04/14 09:54:15;;;;;;;39.25;24.35;;;16.70;99.90;;;;;;5074061;28;20610;-73
2022/04/14 09:56:54;;;;;;;40.80;25.80;;;16.60;99.90;;;;;;5073694;28;20089;-74
2022/04/14 09:59:30;;;;;;;40.33;26.50;;;16.60;99.90;;;;;;5055990;28;20054;-73
2022/04/14 10:02:12;;;;;;;37.60;23.88;;;16.70;99.90;;;;;;5055961;28;20032;-74
2022/04/14 10:04:43;;;;;;;36.10;23.15;;;16.90;99.90;;;;;;5073676;28;20054;-73
2022/04/14 10:07:20;;;;;;;39.33;24.70;;;16.90;99.90;;;;;;5073467;28;20037;-73
2022/04/14 10:09:51;;;;;;;40.33;24.27;;;16.80;99.90;;;;;;5056130;28;20025;-73
2022/04/14 10:12:17;;;;;;;38.10;22.58;;;16.90;99.90;;;;;;5073541;28;20396;-73
2022/04/14 10:14:56;;;;;;;36.55;22.63;;;16.80;99.90;;;;;;5073641;28;20112;-74
2022/04/14 10:17:24;;;;;;;32.38;20.17;;;16.80;99.90;;;;;;5073326;28;20388;-73
2022/04/14 10:19:54;;;;;;;31.35;22.70;;;16.80;99.90;;;;;;5055529;28;20115;-73
2022/04/14 10:22:21;;;;;;;39.65;25.58;;;16.80;99.90;;;;;;5055381;28;20052;-75
2022/04/14 10:24:47;;;;;;;38.78;25.08;;;16.70;99.90;;;;;;5055668;28;20492;-73
2022/04/14 10:27:16;;;;;;;36.28;23.17;;;16.70;99.90;;;;;;5073069;28;20036;-74
2022/04/14 10:29:43;;;;;;;28.67;19.77;;;16.80;99.90;;;;;;5073266;28;20039;-73
2022/04/14 10:32:11;;;;;;;28.40;19.33;;;16.90;99.90;;;;;;5073594;28;20457;-73
2022/04/14 10:34:38;;;;;;;29.98;19.95;;;17.00;99.90;;;;;;5055350;28;20028;-73
2022/04/14 10:37:08;;;;;;;28.00;18.63;;;17.00;99.90;;;;;;5072891;28;20547;-73
2022/04/14 10:39:43;;;;;;;22.08;15.70;;;17.00;99.90;;;;;;5073218;28;20074;-73
2022/04/14 10:42:11;;;;;;;22.85;14.77;;;17.10;99.90;;;;;;5073090;28;20033;-73
2022/04/14 10:44:49;;;;;;;23.67;16.33;;;17.10;99.90;;;;;;5073006;28;20104;-73
2022/04/14 10:47:34;;;;;;;25.80;17.27;;;17.10;99.90;;;;;;5054830;28;20060;-73
2022/04/14 10:50:01;;;;;;;25.20;17.60;;;17.10;99.90;;;;;;5073159;28;20033;-73
2022/04/14 10:52:27;;;;;;;27.42;17.50;;;17.10;99.90;;;;;;5072751;28;20385;-73
2022/04/14 10:54:58;;;;;;;24.50;16.40;;;17.10;99.90;;;;;;5054982;28;20029;-73
2022/04/14 10:57:38;;;;;;;23.95;14.18;;;17.20;99.90;;;;;;5054682;28;20039;-73
2022/04/14 11:00:30;;;;;;;20.45;13.20;;;17.20;99.90;;;;;;5072692;28;20037;-73
2022/04/14 11:03:11;;;;;;;23.75;12.75;;;17.10;99.90;;;;;;5050073;28;20033;-72
2022/04/14 11:05:57;;;;;;;21.60;13.60;;;17.20;99.90;;;;;;5072541;28;20028;-72
2022/04/14 11:08:29;;;;;;;22.15;13.98;;;17.10;99.90;;;;;;5054448;28;20128;-72
2022/04/14 11:11:07;;;;;;;21.02;13.77;;;17.10;99.90;;;;;;5072410;28;20040;-72
2022/04/14 11:13:52;;;;;;;20.60;13.75;;;17.10;99.90;;;;;;5072239;28;20103;-71
2022/04/14 11:16:40;;;;;;;16.63;12.73;;;17.20;99.90;;;;;;5054376;28;20036;-72
2022/04/14 11:19:22;;;;;;;18.33;12.60;;;17.30;99.50;;;;;;5072371;28;20036;-72
2022/04/14 11:22:08;;;;;;;16.48;11.52;;;17.30;99.90;;;;;;5072020;28;20032;-73
2022/04/14 11:24:37;;;;;;;16.70;12.15;;;17.20;99.90;;;;;;5054428;28;20039;-75
2022/04/14 11:27:16;;;;;;;;;;;17.20;99.90;;;;;;5054509;28;20025;-75
2022/04/14 11:29:57;;;;;;;19.52;12.40;;;17.20;99.90;;;;;;5072034;28;20357;-74
2022/04/14 11:32:42;;;;;;;18.38;12.27;;;17.30;99.90;;;;;;5071873;28;20504;-75
2022/04/14 11:35:21;;;;;;;23.50;13.88;;;17.20;99.90;;;;;;5071288;28;20025;-72
2022/04/14 11:37:47;;;;;;;;;;;17.20;99.90;;;;;;5054757;28;20052;-74
2022/04/14 11:40:15;;;;;;;18.30;12.05;;;17.30;99.90;;;;;;5071873;28;19920;-74
2022/04/14 11:42:42;;;;;;;15.90;11.50;;;17.30;99.90;;;;;;5053684;28;20465;-74
2022/04/14 11:45:08;;;;;;;14.35;10.90;;;17.40;99.90;;;;;;5071876;28;20016;-75
2022/04/14 11:47:36;;;;;;;14.40;9.30;;;17.60;99.90;;;;;;5053597;28;20021;-75
2022/04/14 11:50:02;;;;;;;16.58;10.88;;;17.60;99.00;;;;;;5071570;28;20039;-73
2022/04/14 11:52:28;;;;;;;15.95;10.85;;;17.70;98.90;;;;;;5053505;28;20051;-74
2022/04/14 11:54:55;;;;;;;15.48;10.77;;;17.70;99.40;;;;;;5071551;28;20107;-73
2022/04/14 11:57:37;;;;;;;16.23;10.27;;;17.80;99.50;;;;;;5053395;28;20029;-73
2022/04/14 12:00:10;;;;;;;14.40;9.77;;;17.90;98.80;;;;;;5071605;28;20037;-73
2022/04/14 12:02:38;;;;;;;14.27;8.80;;;18.00;98.70;;;;;;5071447;28;20036;-73
2022/04/14 12:05:05;;;;;;;13.32;8.52;;;18.00;98.40;;;;;;5071507;28;20063;-72
2022/04/14 12:07:34;;;;;;;11.05;7.78;;;18.10;98.10;;;;;;5053527;28;20032;-73
2022/04/14 12:10:03;;;;;;;12.20;7.97;;;18.10;97.80;;;;;;5071481;28;20133;-72
2022/04/14 12:12:37;;;;;;;14.40;7.32;;;18.10;97.70;;;;;;5071389;28;20427;-72
2022/04/14 12:15:04;;;;;;;10.98;7.18;;;18.00;97.50;;;;;;5053272;28;20037;-72
2022/04/14 12:17:31;;;;;;;11.05;7.15;;;18.00;97.30;;;;;;5053242;28;20032;-73
2022/04/14 12:20:00;;;;;;;10.60;6.90;;;17.90;96.90;;;;;;5053347;28;20121;-73
2022/04/14 12:22:30;;;;;;;8.93;5.90;;;17.90;96.60;;;;;;5071480;28;20546;-74
2022/04/14 12:24:58;;;;;;;11.13;6.70;;;17.90;96.60;;;;;;5071393;28;20029;-74
2022/04/14 12:27:34;;;;;;;7.40;5.22;;;17.90;96.60;;;;;;5070920;28;20037;-74
2022/04/14 12:30:09;;;;;;;9.75;5.38;;;18.00;96.20;;;;;;5071257;28;20621;-73
2022/04/14 12:32:36;;;;;;;10.38;6.05;;;18.00;96.10;;;;;;5071247;28;20111;-74